createdAt,value
2019-06-26T00:00:26.759Z,8.30
2019-06-26T00:02:56.248Z,8.83
2019-06-26T00:05:25.399Z,7.83
2019-06-26T00:07:54.543Z,7.95
2019-06-26T00:10:23.586Z,8.05
2019-06-26T00:12:52.906Z,8.55
2019-06-26T00:15:22.003Z,9.05
2019-06-26T00:17:51.654Z,8.73
2019-06-26T00:20:23.856Z,8.73
2019-06-26T00:22:52.974Z,9.33
2019-06-26T00:25:28.166Z,9.15
2019-06-26T00:27:57.439Z,8.85
2019-06-26T00:30:26.535Z,9.15
2019-06-26T00:32:58.927Z,8.98
2019-06-26T00:35:27.978Z,8.68
2019-06-26T00:37:57.070Z,9.00
2019-06-26T00:40:26.506Z,8.90
2019-06-26T00:42:56.066Z,8.63
2019-06-26T00:45:25.485Z,9.45
2019-06-26T00:47:54.674Z,9.40
2019-06-26T00:50:23.753Z,10.05
2019-06-26T00:52:52.570Z,9.35
2019-06-26T00:55:21.639Z,9.90
2019-06-26T00:57:50.762Z,9.43
2019-06-26T01:00:25.199Z,10.08
2019-06-26T01:02:54.493Z,8.90
2019-06-26T01:05:23.505Z,9.30
2019-06-26T01:07:55.530Z,8.50
2019-06-26T01:10:24.433Z,8.43
2019-06-26T01:12:53.525Z,7.58
2019-06-26T01:15:22.464Z,8.38
2019-06-26T01:17:51.713Z,8.38
2019-06-26T01:20:20.653Z,7.67
2019-06-26T01:22:49.619Z,7.50
2019-06-26T01:25:37.893Z,7.35
2019-06-26T01:28:10.191Z,7.47
2019-06-26T01:30:39.203Z,7.20
2019-06-26T01:33:08.520Z,7.42
2019-06-26T01:35:37.461Z,7.33
2019-06-26T01:38:06.628Z,6.78
2019-06-26T01:40:35.613Z,7.33
2019-06-26T01:43:04.858Z,6.92
2019-06-26T01:45:53.042Z,6.70
2019-06-26T01:48:25.366Z,6.87
2019-06-26T01:50:54.566Z,7.37
2019-06-26T01:53:23.644Z,7.58
2019-06-26T01:55:52.603Z,6.60
2019-06-26T01:58:24.944Z,6.92
2019-06-26T02:00:53.765Z,7.30
2019-06-26T02:03:22.923Z,6.40
2019-06-26T02:05:51.743Z,7.47
2019-06-26T02:08:20.747Z,6.97
2019-06-26T02:10:49.730Z,7.15
2019-06-26T02:13:19.683Z,6.97
2019-06-26T02:15:48.648Z,6.37
2019-06-26T02:18:36.275Z,6.55
2019-06-26T02:21:05.104Z,6.70
2019-06-26T02:23:33.907Z,7.08
2019-06-26T02:26:02.905Z,7.25
2019-06-26T02:28:32.036Z,6.58
2019-06-26T02:31:00.909Z,7.22
2019-06-26T02:33:29.759Z,6.53
2019-06-26T02:35:58.601Z,6.40
2019-06-26T02:38:27.665Z,7.03
2019-06-26T02:40:56.704Z,7.10
2019-06-26T02:43:25.591Z,7.17
2019-06-26T02:45:54.583Z,6.40
2019-06-26T02:48:23.606Z,6.60
2019-06-26T02:50:52.379Z,7.12
2019-06-26T02:53:21.205Z,6.87
2019-06-26T02:55:49.988Z,6.58
2019-06-26T02:58:18.933Z,7.75
2019-06-26T03:00:47.909Z,7.53
2019-06-26T03:03:16.771Z,7.20
2019-06-26T03:05:45.557Z,7.45
2019-06-26T03:08:14.466Z,6.35
2019-06-26T03:10:43.302Z,7.05
2019-06-26T03:13:12.205Z,6.40
2019-06-26T03:15:41.092Z,6.80
2019-06-26T03:18:10.138Z,7.22
2019-06-26T03:20:43.021Z,6.90
2019-06-26T03:23:11.862Z,6.95
2019-06-26T03:25:40.801Z,7.28
2019-06-26T03:28:09.650Z,7.05
2019-06-26T03:30:38.471Z,7.75
2019-06-26T03:33:07.342Z,7.45
2019-06-26T03:35:36.266Z,7.58
2019-06-26T03:38:05.194Z,8.35
2019-06-26T03:40:33.976Z,7.67
2019-06-26T03:43:02.885Z,7.28
2019-06-26T03:45:31.812Z,7.78
2019-06-26T03:48:00.610Z,8.10
2019-06-26T03:50:29.470Z,7.10
2019-06-26T03:52:58.514Z,7.12
2019-06-26T03:55:27.314Z,7.47
2019-06-26T03:57:56.079Z,7.62
2019-06-26T04:00:37.194Z,7.72
2019-06-26T04:03:06.073Z,8.53
2019-06-26T04:05:34.943Z,7.22
2019-06-26T04:08:03.872Z,6.75
2019-06-26T04:10:32.641Z,7.87
2019-06-26T04:13:01.637Z,7.67
2019-06-26T04:15:41.412Z,7.42
2019-06-26T04:18:01.153Z,8.00
2019-06-26T04:20:31.666Z,7.97
2019-06-26T04:23:00.523Z,8.25
2019-06-26T04:25:29.428Z,8.03
2019-06-26T04:27:58.310Z,8.08
2019-06-26T04:30:27.190Z,8.05
2019-06-26T04:32:55.949Z,7.67
2019-06-26T04:35:24.737Z,8.15
2019-06-26T04:37:53.913Z,8.45
2019-06-26T04:40:22.850Z,8.38
2019-06-26T04:42:51.590Z,8.40
2019-06-26T04:45:20.429Z,8.90
2019-06-26T04:47:49.201Z,8.65
2019-06-26T04:50:18.868Z,7.92
2019-06-26T04:52:47.682Z,8.63
2019-06-26T04:55:16.650Z,8.10
2019-06-26T04:57:45.681Z,9.30
2019-06-26T05:00:14.640Z,7.87
2019-06-26T05:02:43.445Z,8.20
2019-06-26T05:05:13.901Z,9.35
2019-06-26T05:07:42.753Z,9.05
2019-06-26T05:10:11.605Z,8.20
2019-06-26T05:12:40.444Z,9.13
2019-06-26T05:15:09.305Z,9.15
2019-06-26T05:17:39.522Z,8.83
2019-06-26T05:20:09.370Z,9.05
2019-06-26T05:22:38.185Z,8.98
2019-06-26T05:25:07.155Z,9.53
2019-06-26T05:27:35.968Z,9.33
2019-06-26T05:30:06.024Z,9.83
2019-06-26T05:32:34.817Z,9.93
2019-06-26T05:35:03.704Z,10.72
2019-06-26T05:37:32.525Z,11.63
2019-06-26T05:40:02.438Z,11.20
2019-06-26T05:42:31.389Z,11.20
2019-06-26T05:45:00.877Z,10.40
2019-06-26T05:47:29.662Z,11.00
2019-06-26T05:49:58.554Z,11.22
2019-06-26T05:52:27.406Z,11.68
2019-06-26T05:54:56.177Z,11.00
2019-06-26T05:57:25.141Z,12.00
2019-06-26T05:59:53.964Z,10.90
2019-06-26T06:02:42.086Z,11.00
2019-06-26T06:05:13.982Z,11.20
2019-06-26T06:07:42.920Z,11.03
2019-06-26T06:10:11.865Z,11.97
2019-06-26T06:12:40.706Z,10.85
2019-06-26T06:15:09.716Z,12.65
2019-06-26T06:17:38.624Z,12.43
2019-06-26T06:20:07.604Z,11.53
2019-06-26T06:22:36.582Z,11.60
2019-06-26T06:25:07.226Z,11.85
2019-06-26T06:27:38.609Z,10.97
2019-06-26T06:30:07.553Z,10.78
2019-06-26T06:32:36.440Z,9.98
2019-06-26T06:35:05.415Z,10.82
2019-06-26T06:37:34.331Z,10.25
2019-06-26T06:40:04.371Z,9.53
2019-06-26T06:42:34.311Z,9.83
2019-06-26T06:45:03.253Z,8.98
2019-06-26T06:47:32.252Z,8.50
2019-06-26T06:50:01.671Z,9.13
2019-06-26T06:52:30.945Z,7.95
2019-06-26T06:54:59.814Z,8.23
2019-06-26T06:57:28.773Z,8.28
2019-06-26T06:59:57.607Z,7.75
2019-06-26T07:02:26.590Z,7.33
2019-06-26T07:04:55.593Z,7.10
2019-06-26T07:07:24.582Z,7.28
2019-06-26T07:09:53.532Z,6.67
2019-06-26T07:12:22.328Z,6.60
2019-06-26T07:14:51.255Z,6.30
2019-06-26T07:17:21.395Z,5.95
2019-06-26T07:19:50.526Z,6.28
2019-06-26T07:22:19.382Z,6.20
2019-06-26T07:24:48.981Z,5.75
2019-06-26T07:27:17.809Z,5.58
2019-06-26T07:29:46.648Z,5.53
2019-06-26T07:32:15.723Z,5.95
2019-06-26T07:34:44.575Z,5.80
2019-06-26T07:37:13.543Z,5.80
2019-06-26T07:39:42.519Z,5.45
2019-06-26T07:42:11.496Z,5.03
2019-06-26T07:44:40.302Z,4.97
2019-06-26T07:47:22.395Z,5.20
2019-06-26T07:49:39.723Z,4.70
2019-06-26T07:52:08.674Z,5.12
2019-06-26T07:54:37.589Z,5.10
2019-06-26T07:57:06.434Z,5.37
2019-06-26T07:59:35.326Z,5.33
2019-06-26T08:02:04.171Z,5.80
2019-06-26T08:04:32.971Z,6.08
2019-06-26T08:07:01.786Z,5.78
2019-06-26T08:09:30.586Z,5.80
2019-06-26T08:11:59.455Z,6.03
2019-06-26T08:14:28.382Z,5.97
2019-06-26T08:16:57.158Z,5.30
2019-06-26T08:19:26.006Z,5.47
2019-06-26T08:21:54.822Z,6.05
2019-06-26T08:24:23.709Z,5.60
2019-06-26T08:26:52.529Z,5.72
2019-06-26T08:29:21.621Z,6.15
2019-06-26T08:31:50.694Z,5.40
2019-06-26T08:34:19.617Z,5.95
2019-06-26T08:36:48.413Z,5.67
2019-06-26T08:39:17.331Z,4.97
2019-06-26T08:41:47.924Z,5.47
2019-06-26T08:44:16.834Z,6.12
2019-06-26T08:46:45.720Z,5.80
2019-06-26T08:49:24.882Z,6.50
2019-06-26T08:51:45.071Z,5.75
2019-06-26T08:54:13.997Z,6.53
2019-06-26T08:56:42.930Z,5.80
2019-06-26T08:59:11.735Z,6.17
2019-06-26T09:01:40.589Z,5.70
2019-06-26T09:04:09.374Z,6.37
2019-06-26T09:06:38.195Z,5.53
2019-06-26T09:09:07.487Z,6.12
2019-06-26T09:11:36.481Z,5.85
2019-06-26T09:14:05.262Z,5.67
2019-06-26T09:16:34.103Z,6.10
2019-06-26T09:19:03.042Z,5.90
2019-06-26T09:21:31.853Z,5.67
2019-06-26T09:24:00.725Z,6.25
2019-06-26T09:26:29.534Z,6.10
2019-06-26T09:28:58.469Z,5.92
2019-06-26T09:31:27.392Z,6.65
2019-06-26T09:33:56.304Z,6.50
2019-06-26T09:36:25.071Z,6.80
2019-06-26T09:38:57.750Z,6.72
2019-06-26T09:41:24.422Z,6.75
2019-06-26T09:43:53.282Z,7.47
2019-06-26T09:46:22.189Z,6.90
2019-06-26T09:48:53.169Z,6.80
2019-06-26T09:51:21.526Z,7.17
2019-06-26T09:53:50.414Z,6.80
2019-06-26T09:56:19.258Z,6.97
2019-06-26T09:58:48.233Z,6.47
2019-06-26T10:01:17.131Z,6.92
2019-06-26T10:03:45.988Z,6.37
2019-06-26T10:06:14.782Z,6.70
2019-06-26T10:08:45.856Z,6.37
2019-06-26T10:11:14.632Z,6.55
2019-06-26T10:13:43.454Z,6.03
2019-06-26T10:16:12.306Z,5.95
2019-06-26T10:18:41.097Z,6.22
2019-06-26T10:21:09.929Z,6.10
2019-06-26T10:23:39.761Z,6.37
2019-06-26T10:26:27.851Z,5.87
2019-06-26T10:28:56.712Z,5.75
2019-06-26T10:31:25.650Z,6.08
2019-06-26T10:34:13.790Z,5.78
2019-06-26T10:36:42.665Z,5.92
2019-06-26T10:39:11.469Z,5.62
2019-06-26T10:41:41.910Z,5.50
2019-06-26T10:44:12.119Z,5.50
2019-06-26T10:46:40.988Z,5.40
2019-06-26T10:49:22.698Z,5.37
2019-06-26T10:51:40.492Z,5.92
2019-06-26T10:54:09.324Z,5.90
2019-06-26T10:56:38.133Z,5.65
2019-06-26T10:59:07.083Z,5.87
2019-06-26T11:01:36.020Z,5.67
2019-06-26T11:04:04.962Z,5.92
2019-06-26T11:06:37.102Z,5.60
2019-06-26T11:09:05.698Z,5.65
2019-06-26T11:11:34.700Z,5.97
2019-06-26T11:14:03.527Z,6.00
2019-06-26T11:16:32.365Z,5.85
2019-06-26T11:19:01.402Z,5.70
2019-06-26T11:21:30.375Z,5.87
2019-06-26T11:23:59.323Z,5.60
2019-06-26T11:26:28.115Z,6.30
2019-06-26T11:28:57.106Z,5.60
2019-06-26T11:31:26.011Z,5.85
2019-06-26T11:33:54.863Z,5.90
2019-06-26T11:36:23.659Z,6.37
2019-06-26T11:38:52.567Z,5.90
2019-06-26T11:41:21.523Z,5.55
2019-06-26T11:43:50.393Z,6.40
2019-06-26T11:46:20.430Z,5.90
2019-06-26T11:48:49.393Z,5.90
2019-06-26T11:51:18.206Z,6.53
2019-06-26T11:53:47.098Z,6.08
2019-06-26T11:56:16.055Z,5.80
2019-06-26T11:58:44.870Z,6.22
2019-06-26T12:01:13.758Z,6.70
2019-06-26T12:03:42.643Z,6.58
2019-06-26T12:06:18.673Z,7.47
2019-06-26T12:08:42.090Z,8.10
2019-06-26T12:11:10.953Z,8.25
2019-06-26T12:13:40.129Z,7.00
2019-06-26T12:16:09.282Z,7.85
2019-06-26T12:18:38.157Z,7.28
2019-06-26T12:21:07.082Z,8.13
2019-06-26T12:23:36.040Z,6.83
2019-06-26T12:26:05.066Z,7.80
2019-06-26T12:28:34.009Z,7.15
2019-06-26T12:31:02.977Z,7.15
2019-06-26T12:33:32.039Z,7.15
2019-06-26T12:36:00.958Z,6.72
2019-06-26T12:38:29.880Z,6.80
2019-06-26T12:41:00.863Z,6.47
2019-06-26T12:43:29.711Z,6.17
2019-06-26T12:45:58.635Z,6.50
2019-06-26T12:48:27.611Z,6.42
2019-06-26T12:50:56.621Z,6.60
2019-06-26T12:53:27.613Z,6.28
2019-06-26T12:55:56.565Z,5.85
2019-06-26T12:58:25.366Z,6.00
2019-06-26T13:00:54.168Z,5.30
2019-06-26T13:03:22.973Z,5.40
2019-06-26T13:05:51.865Z,4.92
2019-06-26T13:08:20.679Z,4.80
2019-06-26T13:10:50.601Z,5.60
2019-06-26T13:13:19.661Z,5.28
2019-06-26T13:15:55.693Z,4.72
2019-06-26T13:18:24.683Z,5.17
2019-06-26T13:20:53.938Z,5.10
2019-06-26T13:23:22.834Z,4.20
2019-06-26T13:25:51.823Z,4.60
2019-06-26T13:28:20.873Z,5.33
2019-06-26T13:30:53.069Z,4.50
2019-06-26T13:33:20.234Z,4.42
2019-06-26T13:35:49.037Z,4.37
2019-06-26T13:38:17.793Z,4.00
2019-06-26T13:40:46.629Z,4.08
2019-06-26T13:43:15.512Z,4.35
2019-06-26T13:45:44.275Z,3.80
2019-06-26T13:48:13.027Z,3.70
2019-06-26T13:50:41.821Z,4.00
2019-06-26T13:53:10.581Z,3.87
2019-06-26T13:55:41.137Z,3.90
2019-06-26T13:58:09.893Z,4.37
2019-06-26T14:00:38.756Z,3.95
2019-06-26T14:03:07.569Z,4.30
2019-06-26T14:05:36.325Z,4.35
2019-06-26T14:08:05.995Z,4.17
2019-06-26T14:10:34.741Z,4.12
2019-06-26T14:13:03.546Z,3.67
2019-06-26T14:15:32.401Z,4.53
2019-06-26T14:18:01.152Z,4.00
2019-06-26T14:20:29.910Z,4.05
2019-06-26T14:22:58.673Z,4.78
2019-06-26T14:25:27.440Z,3.95
2019-06-26T14:27:56.230Z,4.53
2019-06-26T14:30:27.824Z,3.80
2019-06-26T14:32:55.553Z,3.67
2019-06-26T14:35:24.401Z,3.62
2019-06-26T14:37:53.213Z,3.60
2019-06-26T14:40:21.982Z,4.03
2019-06-26T14:42:50.812Z,4.47
2019-06-26T14:45:19.601Z,3.83
2019-06-26T14:47:48.433Z,3.75
2019-06-26T14:50:17.244Z,3.85
2019-06-26T14:52:46.225Z,3.50
2019-06-26T14:55:15.046Z,3.70
2019-06-26T14:57:43.798Z,3.80
2019-06-26T15:00:14.931Z,3.83
2019-06-26T15:02:43.825Z,3.45
2019-06-26T15:05:14.290Z,3.62
2019-06-26T15:07:43.087Z,3.58
2019-06-26T15:10:13.497Z,3.58
2019-06-26T15:12:42.319Z,3.72
2019-06-26T15:15:11.125Z,2.98
2019-06-26T15:17:39.887Z,3.37
2019-06-26T15:20:08.666Z,3.20
2019-06-26T15:22:37.510Z,2.98
2019-06-26T15:25:06.647Z,3.22
2019-06-26T15:27:36.302Z,3.45
2019-06-26T15:30:05.927Z,3.20
2019-06-26T15:32:34.704Z,3.33
2019-06-26T15:35:04.246Z,3.05
2019-06-26T15:37:33.181Z,3.30
2019-06-26T15:40:02.011Z,3.37
2019-06-26T15:42:30.770Z,4.10
2019-06-26T15:44:59.604Z,3.65
2019-06-26T15:47:28.429Z,4.87
2019-06-26T15:49:57.265Z,4.35
2019-06-26T15:52:26.126Z,4.58
2019-06-26T15:54:54.930Z,4.10
2019-06-26T15:57:23.770Z,4.78
2019-06-26T15:59:52.544Z,4.85
2019-06-26T16:02:21.329Z,7.03
2019-06-26T16:04:50.207Z,7.22
2019-06-26T16:07:19.050Z,4.95
2019-06-26T16:09:48.027Z,3.98
2019-06-26T16:12:16.874Z,3.67
2019-06-26T16:14:45.674Z,4.15
2019-06-26T16:17:28.786Z,3.05
2019-06-26T16:19:57.621Z,3.50
2019-06-26T16:22:32.220Z,3.00
2019-06-26T16:25:16.190Z,3.65
2019-06-26T16:27:45.127Z,3.17
2019-06-26T16:30:13.892Z,2.70
2019-06-26T16:32:42.647Z,3.70
2019-06-26T16:35:12.446Z,3.02
2019-06-26T16:37:41.371Z,3.40
2019-06-26T16:40:10.138Z,3.20
2019-06-26T16:42:38.925Z,3.90
2019-06-26T16:45:07.702Z,3.02
2019-06-26T16:47:36.490Z,3.55
2019-06-26T16:50:05.505Z,3.20
2019-06-26T16:52:48.044Z,4.28
2019-06-26T16:55:05.378Z,5.40
2019-06-26T16:57:34.146Z,5.05
2019-06-26T17:00:09.682Z,4.45
2019-06-26T17:02:33.433Z,3.20
2019-06-26T17:05:02.215Z,3.42
2019-06-26T17:07:31.204Z,2.80
2019-06-26T17:10:00.103Z,3.33
2019-06-26T17:12:28.890Z,3.02
2019-06-26T17:14:57.710Z,2.98
2019-06-26T17:17:26.482Z,3.65
2019-06-26T17:19:55.266Z,3.62
2019-06-26T17:22:24.926Z,2.98
2019-06-26T17:24:53.690Z,4.00
2019-06-26T17:27:22.457Z,3.87
2019-06-26T17:29:51.338Z,3.87
2019-06-26T17:32:20.211Z,3.22
2019-06-26T17:34:48.976Z,4.00
2019-06-26T17:37:17.758Z,3.20
2019-06-26T17:39:46.635Z,3.00
2019-06-26T17:42:15.430Z,3.00
2019-06-26T17:44:44.279Z,3.58
2019-06-26T17:47:13.054Z,3.25
2019-06-26T17:49:41.906Z,3.87
2019-06-26T17:52:10.734Z,4.08
2019-06-26T17:54:39.594Z,3.30
2019-06-26T17:57:08.393Z,3.17
2019-06-26T17:59:37.158Z,3.27
2019-06-26T18:02:05.935Z,3.52
2019-06-26T18:04:34.902Z,3.62
2019-06-26T18:07:03.684Z,3.35
2019-06-26T18:09:32.535Z,3.77
2019-06-26T18:12:01.392Z,3.50
2019-06-26T18:14:30.154Z,3.25
2019-06-26T18:16:58.927Z,3.55
2019-06-26T18:19:28.206Z,3.80
2019-06-26T18:21:56.969Z,3.33
2019-06-26T18:24:25.754Z,3.58
2019-06-26T18:26:54.598Z,4.55
2019-06-26T18:29:23.382Z,4.28
2019-06-26T18:31:52.192Z,3.47
2019-06-26T18:34:21.027Z,3.52
2019-06-26T18:36:49.794Z,4.97
2019-06-26T18:39:18.654Z,4.78
2019-06-26T18:41:47.458Z,4.28
2019-06-26T18:44:16.213Z,4.50
2019-06-26T18:46:45.006Z,4.53
2019-06-26T18:49:13.774Z,4.42
2019-06-26T18:51:42.571Z,4.62
2019-06-26T18:54:11.347Z,4.15
2019-06-26T18:56:40.121Z,4.00
2019-06-26T18:59:09.083Z,4.12
2019-06-26T19:01:37.838Z,4.12
2019-06-26T19:04:06.622Z,3.83
2019-06-26T19:06:35.378Z,3.72
2019-06-26T19:09:05.230Z,3.08
2019-06-26T19:11:34.079Z,3.67
2019-06-26T19:14:02.855Z,2.98
2019-06-26T19:16:31.730Z,2.70
2019-06-26T19:19:00.578Z,3.00
2019-06-26T19:21:29.403Z,2.85
2019-06-26T19:24:09.625Z,2.90
2019-06-26T19:26:28.747Z,2.60
2019-06-26T19:28:57.540Z,2.77
2019-06-26T19:31:26.320Z,2.60
2019-06-26T19:33:55.158Z,3.05
2019-06-26T19:36:28.293Z,2.60
2019-06-26T19:38:54.461Z,2.72
2019-06-26T19:41:23.302Z,2.77
2019-06-26T19:43:52.115Z,2.70
2019-06-26T19:46:20.958Z,2.80
2019-06-26T19:48:49.744Z,2.80
2019-06-26T19:51:18.556Z,2.55
2019-06-26T19:53:47.326Z,2.22
2019-06-26T19:56:19.821Z,2.30
2019-06-26T19:58:46.832Z,2.25
2019-06-26T20:01:17.852Z,2.00
2019-06-26T20:03:48.367Z,2.00
2019-06-26T20:06:36.483Z,2.17
2019-06-26T20:09:06.469Z,2.30
2019-06-26T20:11:36.443Z,2.10
2019-06-26T20:14:05.215Z,1.82
2019-06-26T20:16:36.633Z,2.00
2019-06-26T20:21:33.530Z,1.80
2019-06-26T20:24:02.397Z,2.02
2019-06-26T20:26:31.283Z,1.70
2019-06-26T20:29:00.067Z,1.80
2019-06-26T20:31:28.925Z,1.92
2019-06-26T20:33:57.745Z,2.17
2019-06-26T20:36:26.491Z,1.52
2019-06-26T20:38:55.217Z,1.90
2019-06-26T20:41:23.994Z,1.85
2019-06-26T20:43:52.953Z,2.00
2019-06-26T20:46:21.749Z,2.17
2019-06-26T20:48:50.527Z,1.60
2019-06-26T20:51:20.894Z,1.80
2019-06-26T20:53:49.966Z,1.72
2019-06-26T20:56:18.778Z,1.40
2019-06-26T20:58:47.628Z,1.52
2019-06-26T21:01:16.414Z,2.00
2019-06-26T21:03:45.179Z,2.00
2019-06-26T21:06:13.946Z,1.70
2019-06-26T21:08:42.738Z,1.80
2019-06-26T21:11:11.526Z,1.92
2019-06-26T21:13:40.323Z,1.98
2019-06-26T21:16:09.124Z,1.95
2019-06-26T21:18:57.179Z,1.70
2019-06-26T21:21:25.982Z,1.75
2019-06-26T21:23:54.838Z,2.00
2019-06-26T21:26:23.802Z,1.90
2019-06-26T21:28:52.761Z,1.70
2019-06-26T21:31:21.517Z,1.77
2019-06-26T21:33:50.394Z,1.80
2019-06-26T21:36:19.215Z,1.80
2019-06-26T21:38:47.978Z,1.82
2019-06-26T21:41:16.774Z,1.95
2019-06-26T21:43:45.571Z,1.80
2019-06-26T21:46:14.790Z,1.77
2019-06-26T21:48:43.598Z,1.75
2019-06-26T21:51:12.346Z,1.72
2019-06-26T21:53:41.147Z,2.02
2019-06-26T21:56:09.897Z,1.82
2019-06-26T21:58:38.649Z,1.40
2019-06-26T22:01:07.529Z,1.82
2019-06-26T22:03:36.299Z,1.82
2019-06-26T22:06:05.064Z,1.80
2019-06-26T22:08:33.949Z,1.87
2019-06-26T22:11:02.850Z,1.75
2019-06-26T22:13:31.713Z,1.45
2019-06-26T22:16:00.509Z,1.62
2019-06-26T22:18:29.421Z,1.42
2019-06-26T22:20:58.937Z,1.72
2019-06-26T22:23:27.727Z,1.80
2019-06-26T22:25:56.578Z,1.72
2019-06-26T22:28:25.909Z,1.50
2019-06-26T22:30:54.767Z,1.75
2019-06-26T22:33:23.557Z,2.10
2019-06-26T22:35:52.383Z,1.77
2019-06-26T22:38:21.137Z,1.82
2019-06-26T22:40:49.944Z,1.77
2019-06-26T22:43:18.820Z,1.90
2019-06-26T22:45:47.703Z,1.50
2019-06-26T22:48:18.645Z,1.70
2019-06-26T22:50:47.550Z,1.95
2019-06-26T22:53:16.442Z,1.80
2019-06-26T22:55:45.218Z,2.00
2019-06-26T22:58:15.002Z,1.90
2019-06-26T23:01:03.065Z,1.70
2019-06-26T23:03:31.910Z,1.72
2019-06-26T23:06:00.695Z,1.82
2019-06-26T23:08:29.450Z,2.12
2019-06-26T23:10:58.318Z,1.95
2019-06-26T23:13:27.087Z,2.35
2019-06-26T23:15:55.923Z,1.90
2019-06-26T23:18:24.725Z,1.72
2019-06-26T23:20:55.298Z,1.95
2019-06-26T23:23:24.054Z,2.40
2019-06-26T23:25:52.858Z,2.10
2019-06-26T23:28:21.623Z,1.72
2019-06-26T23:30:50.389Z,2.20
2019-06-26T23:33:19.272Z,1.92
2019-06-26T23:35:48.273Z,1.72
2019-06-26T23:38:17.133Z,1.92
2019-06-26T23:40:45.930Z,1.77
2019-06-26T23:43:14.682Z,1.62
2019-06-26T23:45:43.630Z,2.02
2019-06-26T23:48:12.437Z,2.10
2019-06-26T23:50:41.213Z,2.15
2019-06-26T23:53:09.984Z,1.95
2019-06-26T23:55:38.765Z,1.70
2019-06-26T23:58:07.521Z,1.98
